Kanawha City, West Virginia
Current Conditions -  °F | °C
As of 9:54 AM on Saturday 01 Nov 2014 (Local Time) from KCRW Reporting Station
Light Rain Light Rain  
Wind Chill:   Ceiling: 700
Heat Index:   Visibility: 5mi
Dew Point:   Wind: 8mph
Humidity: 89%   Direction: 330°NNW
Pressure: 29.98"   Gusts: NA
Location:  38.301°N, 81.5932°W
Report Text: KCRW 011354Z 33007KT 5SM -RA BR BKN007 OVC016 06/04 A2998 RMK AO2 SLP156 P0000 T00560039
Loading
Personal Weather Stations






























Interactive Weather Map
Tropical Storm Tracking
New forecast layout! Learn more

10-Day Weather Forecast

Advertisements
Track Severe Weather on mobile